Time;durP1;ratioP1;P1;durP2;ratioP2;P2;SDS_P1;SDS_P2;PMS_P1;PMS_P2;Temp;Humidity;BMP_temperature;BMP_pressure;BME280_temperature;BME280_humidity;BME280_pressure;Samples;Min_cycle;Max_cycle;Signal;HPM_P1;HPM_P2
2022/06/16 00:01:41;;;;;;;7.70;4.63;;;14.60;91.30;;;;;;5013907;28;20022;-50
2022/06/16 00:04:06;;;;;;;9.93;4.85;;;14.50;91.40;;;;;;5013870;28;20081;-47
2022/06/16 00:06:33;;;;;;;8.85;5.20;;;14.40;91.60;;;;;;5013868;28;20030;-59
2022/06/16 00:08:59;;;;;;;8.45;5.00;;;14.40;91.70;;;;;;5013740;28;20075;-51
2022/06/16 00:11:24;;;;;;;8.25;5.63;;;14.40;91.70;;;;;;5013180;28;20045;-49
2022/06/16 00:13:51;;;;;;;8.77;5.20;;;14.30;91.80;;;;;;5013774;28;20692;-50
2022/06/16 00:16:19;;;;;;;9.05;5.53;;;14.20;92.00;;;;;;5013734;28;20489;-53
2022/06/16 00:18:45;;;;;;;8.82;5.60;;;14.20;92.20;;;;;;5013278;28;20030;-51
2022/06/16 00:21:11;;;;;;;8.45;5.45;;;14.20;92.20;;;;;;5013210;28;20372;-52
2022/06/16 00:23:37;;;;;;;9.48;5.88;;;14.20;92.10;;;;;;5013596;28;20499;-56
2022/06/16 00:26:03;;;;;;;10.75;6.20;;;14.10;92.10;;;;;;5012009;28;20026;-50
2022/06/16 00:28:29;;;;;;;12.40;6.43;;;14.10;92.20;;;;;;5013387;28;20906;-54
2022/06/16 00:31:03;;;;;;;10.02;6.07;;;14.10;92.40;;;;;;5013304;28;20088;-55
2022/06/16 00:33:30;;;;;;;11.07;6.35;;;14.10;92.40;;;;;;5013178;28;20026;-58
2022/06/16 00:35:55;;;;;;;8.75;6.43;;;14.10;92.50;;;;;;5013175;28;20032;-48
2022/06/16 00:38:23;;;;;;;8.80;5.57;;;14.10;92.40;;;;;;5013051;28;20104;-55
2022/06/16 00:40:49;;;;;;;10.38;5.47;;;14.00;92.40;;;;;;5013433;28;20037;-59
2022/06/16 00:43:14;;;;;;;10.20;5.80;;;14.00;92.50;;;;;;5013058;28;20037;-52
2022/06/16 00:45:46;;;;;;;10.23;5.47;;;13.90;92.50;;;;;;5013054;28;20030;-52
2022/06/16 00:48:18;;;;;;;7.78;5.22;;;13.90;92.40;;;;;;5013116;28;20050;-54
2022/06/16 00:50:47;;;;;;;12.35;6.00;;;13.90;92.40;;;;;;5012657;28;20024;-52
2022/06/16 00:53:13;;;;;;;6.68;4.93;;;13.90;92.60;;;;;;5012930;28;20104;-50
2022/06/16 00:55:39;;;;;;;8.13;5.18;;;13.80;92.40;;;;;;5012788;28;20121;-48
2022/06/16 00:58:07;;;;;;;9.85;5.63;;;13.80;92.50;;;;;;5012802;28;20050;-46
2022/06/16 01:00:44;;;;;;;9.98;5.25;;;13.80;92.60;;;;;;5012725;28;20079;-51
2022/06/16 01:03:09;;;;;;;8.40;5.30;;;13.70;92.50;;;;;;5002347;28;20079;-53
2022/06/16 01:05:35;;;;;;;9.32;5.50;;;13.70;92.70;;;;;;5012653;28;20025;-55
2022/06/16 01:08:04;;;;;;;8.20;5.45;;;13.70;93.00;;;;;;5012480;28;20381;-52
2022/06/16 01:10:40;;;;;;;10.57;6.18;;;13.70;93.00;;;;;;5012790;28;20050;-54
2022/06/16 01:13:44;;;;;;;10.07;6.10;;;13.70;92.90;;;;;;5012407;28;20045;-54
2022/06/16 01:16:36;;;;;;;12.00;6.40;;;13.70;93.00;;;;;;5012342;28;20029;-53
2022/06/16 01:19:07;;;;;;;12.43;6.05;;;13.60;93.20;;;;;;5011214;28;20084;-61
2022/06/16 01:21:55;;;;;;;8.88;6.32;;;13.70;93.20;;;;;;5011629;28;20377;-56
2022/06/16 01:24:45;;;;;;;8.40;6.32;;;13.60;93.10;;;;;;5012414;28;20022;-54
2022/06/16 01:27:44;;;;;;;8.95;5.65;;;13.60;93.30;;;;;;5012192;28;20026;-56
2022/06/16 01:30:30;;;;;;;;;;;13.60;93.30;;;;;;5012557;28;20025;-48
2022/06/16 01:33:07;;;;;;;8.15;5.05;;;13.50;93.20;;;;;;5011759;28;20037;-48
2022/06/16 01:35:35;;;;;;;11.18;5.13;;;13.50;92.80;;;;;;5011862;28;20018;-52
2022/06/16 01:38:29;;;;;;;7.50;5.38;;;13.40;92.90;;;;;;5012045;28;20520;-61
2022/06/16 01:41:07;;;;;;;7.47;5.10;;;13.40;93.10;;;;;;5011587;28;20072;-54
2022/06/16 01:43:38;;;;;;;7.30;5.03;;;13.40;92.90;;;;;;5011948;28;20358;-56
2022/06/16 01:46:10;;;;;;;9.70;5.15;;;13.30;92.90;;;;;;5011801;28;20033;-56
2022/06/16 01:48:37;;;;;;;8.20;5.47;;;13.30;93.20;;;;;;5011785;28;20026;-63
2022/06/16 01:51:18;;;;;;;8.82;5.43;;;13.30;93.50;;;;;;5011691;28;20026;-60
2022/06/16 01:53:52;;;;;;;9.43;5.35;;;13.20;93.30;;;;;;5011667;28;20042;-58
2022/06/16 01:56:33;;;;;;;8.43;5.70;;;13.20;93.30;;;;;;5011448;28;20099;-61
2022/06/16 01:59:04;;;;;;;6.68;5.00;;;13.20;93.30;;;;;;5011909;28;20053;-58
2022/06/16 02:01:37;;;;;;;9.60;5.40;;;13.20;93.20;;;;;;5011636;28;20038;-56
2022/06/16 02:04:15;;;;;;;8.23;5.50;;;13.10;93.10;;;;;;5011649;28;20389;-54
2022/06/16 02:06:44;;;;;;;11.15;5.55;;;13.10;93.50;;;;;;5011343;28;20374;-55
2022/06/16 02:09:14;;;;;;;6.97;5.07;;;13.00;93.70;;;;;;5011665;28;20099;-57
2022/06/16 02:11:42;;;;;;;7.22;5.47;;;13.00;93.60;;;;;;5011086;28;20038;-55
2022/06/16 02:14:36;;;;;;;8.82;6.15;;;13.00;93.70;;;;;;5011494;28;20547;-54
2022/06/16 02:17:03;;;;;;;8.95;6.05;;;13.00;93.80;;;;;;5000125;28;20213;-53
2022/06/16 02:19:30;;;;;;;9.25;5.82;;;12.90;93.70;;;;;;5011384;28;20049;-56
2022/06/16 02:21:56;;;;;;;8.63;5.57;;;12.90;93.70;;;;;;5011332;28;20049;-52
2022/06/16 02:24:25;;;;;;;8.65;5.78;;;12.90;93.70;;;;;;5011489;28;20056;-55
2022/06/16 02:26:54;;;;;;;9.07;5.28;;;12.90;93.70;;;;;;5010860;28;20083;-60
2022/06/16 02:29:34;;;;;;;7.32;5.22;;;12.90;93.50;;;;;;5011465;28;20029;-48
2022/06/16 02:32:15;;;;;;;7.82;5.30;;;12.80;93.40;;;;;;5007987;28;20030;-52
2022/06/16 02:34:59;;;;;;;12.27;6.13;;;12.80;93.40;;;;;;5009264;28;20026;-52
2022/06/16 02:37:33;;;;;;;8.70;5.57;;;12.70;93.70;;;;;;5011507;28;20065;-51
2022/06/16 02:40:17;;;;;;;11.10;6.53;;;12.70;93.80;;;;;;5005260;28;20026;-53
2022/06/16 02:43:02;;;;;;;6.95;5.55;;;12.70;93.90;;;;;;5001078;28;20481;-54
2022/06/16 02:45:30;;;;;;;10.35;6.57;;;12.70;94.10;;;;;;5010586;28;20025;-52
2022/06/16 02:48:12;;;;;;;8.52;6.28;;;12.70;94.00;;;;;;5011278;28;20036;-48
2022/06/16 02:51:31;;;;;;;9.00;5.57;;;12.60;94.20;;;;;;5014709;28;20022;-49
2022/06/16 02:54:13;;;;;;;7.65;5.90;;;12.60;93.60;;;;;;4954382;29;20031;-48
2022/06/16 02:56:57;;;;;;;6.95;5.43;;;12.50;93.70;;;;;;4954070;29;20062;-58
2022/06/16 02:59:27;;;;;;;7.78;5.43;;;12.50;93.90;;;;;;4996585;28;20118;-58
2022/06/16 03:02:04;;;;;;;7.95;6.03;;;12.50;94.00;;;;;;5014759;28;20501;-52
2022/06/16 03:04:39;;;;;;;9.50;5.60;;;12.50;94.10;;;;;;5014705;28;20127;-47
2022/06/16 03:07:05;;;;;;;9.68;5.88;;;12.40;94.00;;;;;;5014634;28;20046;-47
2022/06/16 03:09:30;;;;;;;8.50;5.80;;;12.40;94.20;;;;;;5014717;28;20483;-49
2022/06/16 03:11:57;;;;;;;8.57;6.10;;;12.40;94.20;;;;;;5014222;28;20575;-56
2022/06/16 03:14:22;;;;;;;9.07;6.32;;;12.40;94.40;;;;;;5014703;28;20108;-59
2022/06/16 03:16:48;;;;;;;8.88;6.40;;;12.40;94.40;;;;;;5014396;28;20165;-52
2022/06/16 03:19:14;;;;;;;14.10;6.30;;;12.40;94.40;;;;;;5009160;28;20416;-53
2022/06/16 03:21:40;;;;;;;9.05;5.95;;;12.30;94.50;;;;;;5014571;28;20029;-49
2022/06/16 03:24:06;;;;;;;9.50;5.55;;;12.40;94.30;;;;;;5013376;28;20700;-49
2022/06/16 03:26:31;;;;;;;7.70;5.95;;;12.30;94.10;;;;;;5014176;28;20065;-53
2022/06/16 03:28:57;;;;;;;7.22;5.63;;;12.30;94.00;;;;;;5014439;28;20129;-57
2022/06/16 03:31:22;;;;;;;8.90;5.75;;;12.30;94.40;;;;;;5014126;28;20022;-54
2022/06/16 03:33:48;;;;;;;8.73;5.90;;;12.30;94.30;;;;;;5013476;28;20022;-48
2022/06/16 03:36:14;;;;;;;11.07;6.45;;;12.30;94.20;;;;;;5008601;28;20109;-52
2022/06/16 03:38:43;;;;;;;11.52;6.07;;;12.30;94.00;;;;;;5014350;28;20025;-51
2022/06/16 03:41:10;;;;;;;8.20;5.85;;;12.30;93.90;;;;;;5013622;28;20030;-53
2022/06/16 03:43:36;;;;;;;10.27;6.40;;;12.20;94.20;;;;;;5000366;28;20021;-52
2022/06/16 03:46:02;;;;;;;7.35;5.90;;;12.20;94.20;;;;;;5013671;28;20359;-57
2022/06/16 03:48:28;;;;;;;6.53;5.25;;;12.20;94.10;;;;;;5013989;28;20125;-60
2022/06/16 03:50:54;;;;;;;9.45;5.95;;;12.10;94.60;;;;;;5013783;28;20106;-49
2022/06/16 03:53:19;;;;;;;7.75;6.07;;;12.20;94.20;;;;;;5013967;28;20465;-48
2022/06/16 03:55:45;;;;;;;8.13;6.38;;;12.20;94.80;;;;;;5014176;28;20035;-51
2022/06/16 03:58:13;;;;;;;10.68;6.28;;;12.20;94.60;;;;;;5014106;28;20033;-51
2022/06/16 04:00:40;;;;;;;8.57;6.65;;;12.10;95.00;;;;;;5013477;28;20026;-51
2022/06/16 04:05:50;;;;;;;9.25;6.60;;;12.10;94.60;;;;;;5014092;28;20056;-49
2022/06/16 04:08:19;;;;;;;8.52;5.95;;;12.20;94.70;;;;;;5013806;28;20485;-56
2022/06/16 04:10:46;;;;;;;10.18;6.15;;;12.20;94.60;;;;;;5013502;28;20046;-49
2022/06/16 04:13:13;;;;;;;7.80;6.00;;;12.20;94.50;;;;;;5013771;28;20053;-50
2022/06/16 04:15:39;;;;;;;8.45;6.00;;;12.30;94.90;;;;;;5013478;28;20497;-48
2022/06/16 04:18:05;;;;;;;8.38;6.10;;;12.40;94.50;;;;;;5013695;28;20029;-50
2022/06/16 04:20:31;;;;;;;7.28;5.65;;;12.40;94.90;;;;;;5012931;28;20058;-55
2022/06/16 04:22:57;;;;;;;9.82;6.35;;;12.50;94.40;;;;;;4999743;28;20438;-57
2022/06/16 04:25:31;;;;;;;8.60;5.80;;;12.50;94.20;;;;;;5013611;28;20029;-54
2022/06/16 04:28:02;;;;;;;10.93;6.13;;;12.50;94.10;;;;;;5013304;28;20083;-56
2022/06/16 04:30:28;;;;;;;9.25;6.30;;;12.50;94.00;;;;;;5013128;28;20112;-50
2022/06/16 04:32:54;;;;;;;8.65;6.85;;;12.60;94.50;;;;;;5013144;28;20025;-52
2022/06/16 04:35:20;;;;;;;7.82;6.18;;;12.60;94.50;;;;;;5013450;28;20025;-49
2022/06/16 04:37:46;;;;;;;9.93;6.20;;;12.60;94.60;;;;;;5013176;28;20366;-56
2022/06/16 04:40:12;;;;;;;9.02;6.28;;;12.70;94.50;;;;;;5013183;28;20022;-50
2022/06/16 04:42:38;;;;;;;11.90;6.65;;;12.80;94.40;;;;;;5012849;28;20030;-49
2022/06/16 04:45:04;;;;;;;11.85;7.10;;;12.90;94.00;;;;;;5013129;28;20018;-56
2022/06/16 04:47:30;;;;;;;11.80;6.07;;;12.90;94.40;;;;;;5011713;28;20065;-52
2022/06/16 04:49:56;;;;;;;11.13;6.53;;;12.90;94.20;;;;;;5012728;28;20374;-52
2022/06/16 04:52:22;;;;;;;11.18;6.82;;;13.00;93.90;;;;;;5012650;28;20030;-55
2022/06/16 04:54:48;;;;;;;10.13;6.85;;;13.20;94.20;;;;;;5012990;28;20038;-56
2022/06/16 04:57:15;;;;;;;9.15;6.05;;;13.70;94.10;;;;;;5012984;28;20036;-58
2022/06/16 04:59:42;;;;;;;7.95;6.15;;;14.30;92.60;;;;;;5012980;28;20053;-54
2022/06/16 05:02:08;;;;;;;8.25;5.78;;;15.00;91.50;;;;;;5012666;28;20022;-59
2022/06/16 05:04:35;;;;;;;8.48;5.43;;;15.70;87.80;;;;;;5012874;28;20041;-58
2022/06/16 05:07:01;;;;;;;8.88;5.88;;;15.90;86.10;;;;;;5012618;28;20092;-50
2022/06/16 05:09:28;;;;;;;8.35;4.82;;;16.20;86.50;;;;;;5012094;28;20033;-48
2022/06/16 05:11:54;;;;;;;9.75;4.78;;;16.60;84.10;;;;;;5010363;28;20048;-56
2022/06/16 05:14:25;;;;;;;6.57;4.50;;;16.80;80.60;;;;;;5010656;28;20102;-48
2022/06/16 05:16:51;;;;;;;9.00;4.70;;;16.90;82.40;;;;;;5000928;28;20077;-55
2022/06/16 05:19:17;;;;;;;7.63;4.82;;;17.00;82.30;;;;;;5000815;28;20018;-57
2022/06/16 05:21:43;;;;;;;9.57;4.70;;;16.80;82.00;;;;;;5012028;28;20105;-51
2022/06/16 05:24:09;;;;;;;7.35;4.80;;;16.60;82.40;;;;;;5011943;28;20422;-51
2022/06/16 05:26:35;;;;;;;8.57;4.90;;;16.40;83.90;;;;;;5012358;28;20056;-52
2022/06/16 05:29:01;;;;;;;9.15;5.57;;;16.30;85.30;;;;;;5012064;28;20022;-53
2022/06/16 05:31:26;;;;;;;7.32;4.75;;;16.20;86.30;;;;;;5011892;28;20041;-53
2022/06/16 05:33:52;;;;;;;8.88;4.72;;;16.10;85.80;;;;;;5012011;28;20057;-59
2022/06/16 05:36:18;;;;;;;7.22;5.18;;;16.00;88.70;;;;;;5011972;28;20381;-50
2022/06/16 05:38:45;;;;;;;7.00;4.70;;;15.80;89.00;;;;;;5011895;28;20022;-51
2022/06/16 05:41:17;;;;;;;8.10;4.93;;;15.50;88.80;;;;;;5011886;28;20441;-54
2022/06/16 05:43:43;;;;;;;8.48;4.97;;;15.40;90.10;;;;;;5012019;28;20053;-52
2022/06/16 05:46:16;;;;;;;6.93;4.88;;;15.60;90.20;;;;;;5012074;28;20032;-57
2022/06/16 05:48:42;;;;;;;6.72;4.80;;;15.70;89.40;;;;;;5011764;28;20037;-56
2022/06/16 05:51:10;;;;;;;6.90;4.45;;;16.10;87.50;;;;;;5011234;28;20029;-54
2022/06/16 05:53:36;;;;;;;7.05;4.35;;;16.60;85.80;;;;;;5009585;28;20038;-51
2022/06/16 05:56:03;;;;;;;6.97;4.68;;;17.10;87.30;;;;;;5007017;28;20038;-47
2022/06/16 05:58:29;;;;;;;8.35;4.55;;;17.70;84.50;;;;;;5008307;28;20041;-50
2022/06/16 06:00:54;;;;;;;7.80;4.70;;;18.40;80.90;;;;;;5008264;28;20022;-53
2022/06/16 06:03:20;;;;;;;9.30;4.93;;;18.80;77.10;;;;;;5009297;28;20084;-52
2022/06/16 06:05:46;;;;;;;9.10;4.30;;;19.00;76.40;;;;;;5009395;28;20114;-50
2022/06/16 06:16:29;;;;;;;7.93;4.00;;;19.80;74.80;;;;;;5009555;28;20037;-55
2022/06/16 06:18:59;;;;;;;8.95;4.18;;;19.80;74.40;;;;;;5009522;28;20029;-55
2022/06/16 06:24:11;;;;;;;7.78;4.40;;;20.30;75.70;;;;;;5009518;28;20036;-55
2022/06/16 06:26:38;;;;;;;6.57;4.30;;;21.50;71.40;;;;;;5009275;28;20041;-53
2022/06/16 06:29:04;;;;;;;7.45;4.13;;;22.10;68.50;;;;;;5010136;28;20132;-51
2022/06/16 06:31:30;;;;;;;9.38;4.70;;;22.50;66.50;;;;;;5011072;28;20382;-49
2022/06/16 06:33:56;;;;;;;6.97;4.05;;;22.60;67.20;;;;;;5011218;28;20025;-51
2022/06/16 06:36:22;;;;;;;6.40;4.47;;;23.20;67.10;;;;;;5010849;28;20033;-54
2022/06/16 06:38:47;;;;;;;9.55;4.57;;;24.10;63.70;;;;;;5010953;28;20080;-52
2022/06/16 06:41:14;;;;;;;8.50;4.93;;;24.60;60.70;;;;;;5011160;28;20184;-50
2022/06/16 06:43:40;;;;;;;10.18;5.57;;;25.10;59.10;;;;;;5011018;28;20034;-47
2022/06/16 06:46:06;;;;;;;12.48;6.57;;;25.30;57.10;;;;;;5011234;28;20528;-54
2022/06/16 06:48:32;;;;;;;12.32;7.07;;;25.60;56.90;;;;;;5010790;28;20038;-54
2022/06/16 06:50:58;;;;;;;8.88;6.22;;;25.90;55.70;;;;;;5010952;28;20045;-53
2022/06/16 06:53:23;;;;;;;10.75;6.68;;;26.10;57.80;;;;;;5010780;28;20026;-49
2022/06/16 06:55:49;;;;;;;12.63;6.93;;;26.60;53.20;;;;;;5011031;28;20037;-48
2022/06/16 06:58:21;;;;;;;10.35;7.68;;;26.90;54.00;;;;;;5010921;28;20026;-53
2022/06/16 07:00:53;;;;;;;12.07;7.95;;;27.40;52.60;;;;;;5010780;28;20465;-50
2022/06/16 07:03:20;;;;;;;11.55;8.18;;;27.60;50.30;;;;;;5011074;28;20025;-53
2022/06/16 07:05:47;;;;;;;10.63;7.68;;;27.50;50.30;;;;;;5010530;28;20036;-52
2022/06/16 07:08:13;;;;;;;14.55;8.68;;;27.30;49.80;;;;;;5010864;28;20037;-54
2022/06/16 07:10:40;;;;;;;12.07;8.30;;;27.00;49.60;;;;;;5010693;28;20056;-52
2022/06/16 07:13:07;;;;;;;15.88;8.73;;;27.10;52.10;;;;;;4999923;28;20032;-45
2022/06/16 07:15:33;;;;;;;14.10;8.55;;;27.00;51.80;;;;;;5010882;28;20084;-56
2022/06/16 07:17:59;;;;;;;13.73;8.77;;;27.20;51.40;;;;;;5010481;28;20669;-53
2022/06/16 07:20:25;;;;;;;12.05;8.38;;;27.20;52.50;;;;;;5010751;28;20026;-48
2022/06/16 07:22:50;;;;;;;11.73;6.85;;;27.60;50.60;;;;;;5010666;28;20021;-54
2022/06/16 07:25:16;;;;;;;10.60;7.15;;;27.80;51.70;;;;;;5010351;28;20026;-54
2022/06/16 07:27:42;;;;;;;13.68;7.80;;;27.90;49.20;;;;;;5010657;28;20037;-52
2022/06/16 07:30:14;;;;;;;8.82;6.72;;;28.10;48.90;;;;;;5010666;28;20030;-59
2022/06/16 07:32:44;;;;;;;9.15;6.43;;;28.20;50.10;;;;;;5010666;28;20038;-51
2022/06/16 07:35:11;;;;;;;9.48;5.93;;;28.50;48.30;;;;;;5012373;28;20030;-53
2022/06/16 07:37:37;;;;;;;7.57;4.95;;;28.50;50.30;;;;;;5014204;28;20053;-46
2022/06/16 07:40:04;;;;;;;8.75;4.53;;;29.00;49.90;;;;;;5012674;28;20022;-54
2022/06/16 07:42:29;;;;;;;7.55;4.72;;;29.00;46.00;;;;;;5003771;28;20066;-57
2022/06/16 07:44:55;;;;;;;7.03;4.63;;;29.10;48.60;;;;;;5009082;28;20056;-57
2022/06/16 07:47:21;;;;;;;8.68;5.18;;;29.10;46.10;;;;;;5014120;28;20760;-52
2022/06/16 07:49:49;;;;;;;8.73;4.97;;;29.20;47.30;;;;;;5013840;28;20388;-53
2022/06/16 07:52:15;;;;;;;7.25;4.13;;;29.00;48.00;;;;;;5014103;28;20117;-56
2022/06/16 07:54:41;;;;;;;6.22;3.80;;;29.40;47.90;;;;;;5013756;28;20064;-56
2022/06/16 07:57:07;;;;;;;5.88;3.60;;;30.00;49.50;;;;;;5011651;28;20049;-51
2022/06/16 07:59:33;;;;;;;6.88;3.78;;;30.30;44.60;;;;;;5013840;28;20025;-46
2022/06/16 08:01:59;;;;;;;8.00;3.45;;;30.30;44.10;;;;;;5013970;28;20097;-45
2022/06/16 08:04:25;;;;;;;8.00;3.72;;;30.30;44.30;;;;;;5013796;28;20576;-50
2022/06/16 08:06:51;;;;;;;5.35;3.20;;;30.50;43.30;;;;;;5013614;28;20049;-48
2022/06/16 08:09:16;;;;;;;6.88;3.47;;;30.60;47.60;;;;;;5013618;28;20432;-48
2022/06/16 08:14:27;;;;;;;7.07;3.53;;;30.50;43.90;;;;;;5013448;28;20103;-52
2022/06/16 08:16:53;;;;;;;6.35;3.28;;;30.60;42.30;;;;;;5013374;28;20026;-53
2022/06/16 08:19:19;;;;;;;7.85;4.63;;;31.20;41.90;;;;;;5013520;28;20380;-53
2022/06/16 08:21:44;;;;;;;7.43;3.80;;;31.60;41.40;;;;;;5011428;28;20113;-51
2022/06/16 08:24:10;;;;;;;5.53;3.15;;;31.60;40.20;;;;;;5009740;28;20030;-47
2022/06/16 08:26:37;;;;;;;7.75;3.22;;;31.50;42.60;;;;;;5013094;28;20030;-49
2022/06/16 08:29:07;;;;;;;5.95;3.22;;;32.10;39.10;;;;;;5012847;28;20366;-46
2022/06/16 08:31:32;;;;;;;5.57;2.60;;;32.70;39.30;;;;;;5013265;28;20022;-59
2022/06/16 08:33:59;;;;;;;10.95;3.22;;;32.80;37.90;;;;;;5013100;28;20076;-51
2022/06/16 08:36:25;;;;;;;6.57;2.90;;;32.10;36.40;;;;;;5013160;28;20155;-57
2022/06/16 08:38:51;;;;;;;5.45;3.15;;;31.90;38.10;;;;;;5012908;28;20108;-55
2022/06/16 08:41:35;;;;;;;8.30;2.85;;;31.90;40.80;;;;;;5013012;28;20095;-49
2022/06/16 08:44:12;;;;;;;6.13;2.90;;;31.70;43.60;;;;;;5000968;28;20108;-54
2022/06/16 08:46:51;;;;;;;7.40;3.10;;;32.10;41.80;;;;;;5000055;28;20024;-51
2022/06/16 08:49:19;;;;;;;6.60;2.95;;;32.40;38.00;;;;;;5010041;28;20030;-55
2022/06/16 08:52:10;;;;;;;9.02;3.13;;;31.90;38.10;;;;;;5012155;28;20363;-52
2022/06/16 08:54:48;;;;;;;6.82;3.28;;;31.90;42.00;;;;;;5012856;28;20469;-53
2022/06/16 08:57:14;;;;;;;9.00;3.45;;;31.70;41.00;;;;;;5011288;28;20036;-50
2022/06/16 08:59:52;;;;;;;9.63;3.33;;;31.70;44.10;;;;;;5011567;28;20101;-47
2022/06/16 09:02:43;;;;;;;7.38;3.38;;;31.90;42.30;;;;;;5010672;28;20030;-48
2022/06/16 09:05:43;;;;;;;8.73;3.10;;;31.30;41.60;;;;;;5012636;28;20109;-45
2022/06/16 09:08:24;;;;;;;9.88;3.10;;;30.80;41.90;;;;;;4999282;28;20092;-51
2022/06/16 09:11:00;;;;;;;6.20;3.10;;;31.30;43.00;;;;;;5010610;28;20410;-48
2022/06/16 09:13:43;;;;;;;5.32;3.17;;;31.50;41.20;;;;;;5006101;28;20025;-53
2022/06/16 09:16:45;;;;;;;11.32;3.65;;;31.60;43.70;;;;;;5001082;28;20025;-53
2022/06/16 09:19:20;;;;;;;7.60;3.00;;;31.60;41.30;;;;;;4978230;28;20034;-45
2022/06/16 09:21:49;;;;;;;11.35;3.25;;;31.60;44.70;;;;;;5012738;28;20041;-51
2022/06/16 09:24:37;;;;;;;6.22;3.00;;;31.20;42.20;;;;;;5012358;28;20022;-51
2022/06/16 09:27:17;;;;;;;5.90;3.00;;;31.40;45.20;;;;;;5012338;28;20034;-54
2022/06/16 09:30:10;;;;;;;6.35;2.88;;;31.70;41.80;;;;;;5011898;28;20479;-47
2022/06/16 09:32:52;;;;;;;7.03;3.05;;;31.80;43.70;;;;;;5007687;28;20311;-52
2022/06/16 09:35:32;;;;;;;5.60;3.10;;;31.50;40.10;;;;;;5009927;28;20053;-62
2022/06/16 09:38:10;;;;;;;8.75;3.50;;;31.20;43.70;;;;;;5011456;28;20460;-54
2022/06/16 09:40:40;;;;;;;7.15;3.50;;;31.00;43.70;;;;;;5011683;28;20469;-52
2022/06/16 09:43:06;;;;;;;13.30;3.33;;;31.00;44.30;;;;;;5003061;28;20557;-46
2022/06/16 09:45:39;;;;;;;10.32;3.70;;;30.80;43.90;;;;;;5006632;28;20144;-54
2022/06/16 09:48:22;;;;;;;6.85;2.88;;;30.90;42.70;;;;;;5009927;28;20124;-55
2022/06/16 09:50:57;;;;;;;5.43;2.95;;;31.50;45.80;;;;;;5005340;28;20481;-57
2022/06/16 09:53:54;;;;;;;6.38;3.20;;;31.30;42.30;;;;;;4994546;28;20061;-54
2022/06/16 09:56:37;;;;;;;8.00;3.35;;;30.70;43.20;;;;;;5010387;28;20398;-54
2022/06/16 09:59:13;;;;;;;6.97;3.13;;;30.60;45.10;;;;;;5006176;28;20437;-53
2022/06/16 10:01:49;;;;;;;8.65;2.90;;;30.30;44.40;;;;;;4999052;28;20026;-49
2022/06/16 10:04:15;;;;;;;9.38;3.15;;;30.10;45.00;;;;;;5010482;28;20048;-51
2022/06/16 10:06:56;;;;;;;6.55;2.80;;;30.30;44.80;;;;;;5011616;28;20657;-52
2022/06/16 10:09:50;;;;;;;7.50;3.13;;;30.10;46.10;;;;;;5011393;28;20477;-59
2022/06/16 10:12:19;;;;;;;9.02;2.88;;;30.40;46.10;;;;;;4993662;28;20089;-54
2022/06/16 10:15:07;;;;;;;7.28;2.90;;;31.40;45.60;;;;;;5011378;28;20033;-55
2022/06/16 10:17:35;;;;;;;6.97;2.85;;;31.40;42.90;;;;;;5010775;28;20389;-52
2022/06/16 10:20:02;;;;;;;7.95;2.92;;;31.50;44.20;;;;;;5011717;28;20030;-58
2022/06/16 10:22:30;;;;;;;6.85;2.60;;;31.20;41.00;;;;;;5011237;28;20445;-51
2022/06/16 10:24:59;;;;;;;5.53;2.60;;;31.30;46.30;;;;;;5005518;28;20034;-58
2022/06/16 10:27:28;;;;;;;;;;;31.50;40.80;;;;;;4993103;28;20038;-56
2022/06/16 10:29:59;;;;;;;8.27;2.50;;;31.20;40.70;;;;;;5007418;28;19970;-58
2022/06/16 10:32:38;;;;;;;7.35;2.40;;;31.30;44.30;;;;;;5008592;28;21415;-57
2022/06/16 10:35:06;;;;;;;6.63;2.60;;;30.80;41.90;;;;;;5005087;28;20049;-55
2022/06/16 10:37:33;;;;;;;5.50;2.33;;;30.40;42.20;;;;;;5010091;28;20036;-56
2022/06/16 10:40:12;;;;;;;9.30;2.45;;;30.00;42.70;;;;;;5011044;28;20041;-58
2022/06/16 10:42:44;;;;;;;8.25;2.72;;;30.00;45.40;;;;;;5001812;28;20026;-54
2022/06/16 10:45:22;;;;;;;10.85;3.40;;;29.80;45.20;;;;;;4995797;28;20061;-54
2022/06/16 10:47:51;;;;;;;;;;;29.70;43.60;;;;;;5001426;28;20060;-56
2022/06/16 10:50:31;;;;;;;6.00;3.13;;;29.60;45.70;;;;;;5010246;28;19999;-57
2022/06/16 10:53:04;;;;;;;5.40;2.67;;;29.70;44.40;;;;;;5010557;28;20053;-58
2022/06/16 10:55:42;;;;;;;7.97;2.40;;;29.70;43.30;;;;;;5010695;28;20098;-53
2022/06/16 10:58:30;;;;;;;5.75;2.22;;;29.80;47.60;;;;;;5010835;28;20036;-55
2022/06/16 11:01:21;;;;;;;11.57;3.10;;;30.00;44.00;;;;;;5011120;28;20057;-56
2022/06/16 11:04:11;;;;;;;7.30;2.53;;;29.90;40.80;;;;;;5010749;28;20397;-57
2022/06/16 11:06:48;;;;;;;6.53;2.60;;;30.10;45.70;;;;;;5005526;28;20034;-50
2022/06/16 11:09:19;;;;;;;6.70;2.60;;;30.10;43.50;;;;;;5010751;28;20539;-53
2022/06/16 11:11:54;;;;;;;7.03;2.70;;;30.00;46.20;;;;;;5002550;28;20414;-50
2022/06/16 11:14:34;;;;;;;6.70;2.88;;;30.40;43.30;;;;;;4997532;28;20030;-54
2022/06/16 11:17:05;;;;;;;5.50;3.00;;;30.70;43.60;;;;;;5000321;28;20018;-54
2022/06/16 11:19:37;;;;;;;6.72;2.97;;;30.70;42.50;;;;;;5014526;28;20022;-48
2022/06/16 11:22:12;;;;;;;5.75;2.45;;;30.80;43.80;;;;;;5014617;28;20030;-55
2022/06/16 11:24:37;;;;;;;6.88;3.15;;;30.90;41.40;;;;;;5014532;28;20022;-49
2022/06/16 11:27:14;;;;;;;8.80;3.03;;;30.90;46.30;;;;;;5014503;28;20052;-56
2022/06/16 11:29:40;;;;;;;7.03;2.95;;;30.70;42.40;;;;;;5014248;28;20461;-56
2022/06/16 11:32:15;;;;;;;7.53;2.80;;;30.60;41.30;;;;;;5014480;28;20088;-49
2022/06/16 11:34:43;;;;;;;7.97;2.60;;;30.50;41.90;;;;;;5014143;28;20029;-54
2022/06/16 11:37:08;;;;;;;7.20;3.27;;;30.10;42.40;;;;;;5013205;28;20029;-56
2022/06/16 11:39:53;;;;;;;6.10;2.55;;;30.20;43.90;;;;;;5014536;28;20033;-54
2022/06/16 11:42:55;;;;;;;6.75;2.80;;;30.30;44.20;;;;;;4994989;28;20026;-54
2022/06/16 11:45:26;;;;;;;6.75;2.40;;;30.10;44.50;;;;;;5012558;28;20064;-54
2022/06/16 11:48:17;;;;;;;9.45;3.30;;;29.90;46.00;;;;;;5014119;28;20042;-55
2022/06/16 11:50:51;;;;;;;8.55;3.10;;;30.00;40.90;;;;;;5014291;28;20113;-50
2022/06/16 11:53:36;;;;;;;8.63;3.38;;;29.30;40.90;;;;;;5013687;28;20489;-46
2022/06/16 11:56:15;;;;;;;7.43;3.00;;;29.30;45.20;;;;;;5014246;28;20026;-45
2022/06/16 11:59:10;;;;;;;7.50;3.10;;;29.20;46.50;;;;;;5013381;28;20497;-46
2022/06/16 12:01:45;;;;;;;7.05;2.97;;;29.20;44.00;;;;;;5013783;28;20523;-50
2022/06/16 12:04:38;;;;;;;8.52;3.20;;;29.00;44.90;;;;;;5014077;28;20037;-52
2022/06/16 12:07:22;;;;;;;8.15;3.00;;;28.80;45.30;;;;;;5011396;28;20527;-52
2022/06/16 12:09:55;;;;;;;6.93;3.05;;;28.90;48.50;;;;;;5004431;28;20485;-50
2022/06/16 12:12:36;;;;;;;9.40;3.10;;;29.20;47.20;;;;;;4997841;28;20397;-56
2022/06/16 12:15:23;;;;;;;5.55;2.88;;;29.40;47.30;;;;;;5001897;28;20068;-51
2022/06/16 12:18:27;;;;;;;4.90;2.53;;;29.70;47.00;;;;;;5005637;28;20023;-47
2022/06/16 12:21:17;;;;;;;11.27;2.88;;;29.50;47.20;;;;;;4951963;28;20503;-53
2022/06/16 12:24:01;;;;;;;7.03;3.00;;;29.90;45.30;;;;;;4952911;29;20372;-49
2022/06/16 12:26:36;;;;;;;5.55;2.90;;;29.20;44.90;;;;;;4993600;28;20030;-51
2022/06/16 12:29:08;;;;;;;8.50;3.05;;;29.20;46.20;;;;;;5013474;28;20065;-50
2022/06/16 12:32:06;;;;;;;17.35;3.42;;;29.10;42.60;;;;;;5013344;28;20434;-48
2022/06/16 12:34:56;;;;;;;7.72;2.67;;;29.00;44.30;;;;;;5013198;28;20029;-55
2022/06/16 12:37:26;;;;;;;6.68;2.90;;;29.00;48.70;;;;;;5005953;28;20450;-50
2022/06/16 12:40:06;;;;;;;8.10;2.58;;;28.80;46.30;;;;;;5012704;28;20026;-49
2022/06/16 12:42:38;;;;;;;8.60;2.88;;;28.90;47.10;;;;;;5013293;28;20052;-49
2022/06/16 12:45:19;;;;;;;9.00;3.20;;;29.00;49.00;;;;;;5012822;28;20105;-52
2022/06/16 12:48:07;;;;;;;6.50;3.38;;;29.10;45.60;;;;;;5012973;28;20034;-49
2022/06/16 12:50:41;;;;;;;5.65;2.53;;;28.80;43.70;;;;;;5012081;28;20029;-51
2022/06/16 12:53:29;;;;;;;9.18;3.17;;;28.70;47.60;;;;;;5012795;28;20033;-48
2022/06/16 12:56:07;;;;;;;4.85;2.55;;;28.50;46.10;;;;;;5001093;28;20033;-52
2022/06/16 12:58:44;;;;;;;;;;;28.30;47.10;;;;;;5013189;28;20040;-54
2022/06/16 13:01:13;;;;;;;7.50;2.90;;;28.10;47.70;;;;;;5012868;28;19913;-51
2022/06/16 13:03:49;;;;;;;9.13;2.90;;;28.30;46.70;;;;;;5010183;28;20105;-48
2022/06/16 13:06:21;;;;;;;6.18;2.80;;;28.40;49.50;;;;;;5008188;28;20030;-54
2022/06/16 13:08:53;;;;;;;5.40;2.70;;;28.40;48.90;;;;;;5000613;28;20030;-54
2022/06/16 13:11:22;;;;;;;9.38;2.92;;;28.30;47.00;;;;;;5003230;28;20116;-53
2022/06/16 13:14:26;;;;;;;7.82;2.67;;;27.80;46.30;;;;;;4996144;28;20478;-59
2022/06/16 13:16:53;;;;;;;7.05;2.80;;;27.90;51.30;;;;;;4998165;28;20569;-58
2022/06/16 13:19:21;;;;;;;11.18;2.75;;;28.20;45.70;;;;;;5008800;28;20018;-57
2022/06/16 13:22:00;;;;;;;11.85;2.97;;;28.20;49.10;;;;;;5008761;28;20073;-55
2022/06/16 13:24:46;;;;;;;6.18;2.75;;;28.10;49.30;;;;;;5009929;28;20022;-57
2022/06/16 13:27:31;;;;;;;9.80;3.05;;;27.90;47.50;;;;;;4999325;28;20042;-52
2022/06/16 13:30:05;;;;;;;8.23;2.90;;;27.80;48.90;;;;;;5010869;28;20018;-61